sensor_id;sensor_type;location;lat;lon;timestamp;pressure;altitude;pressure_sealevel;temperature;humidity
61357;BME280;47227;46.752;23.576;2023-03-13T00:01:17;96587.86;;;-2.47;55.93
61357;BME280;47227;46.752;23.576;2023-03-13T00:03:46;96587.24;;;-2.51;55.98
61357;BME280;47227;46.752;23.576;2023-03-13T00:06:14;96588.13;;;-2.53;55.56
61357;BME280;47227;46.752;23.576;2023-03-13T00:08:43;96589.73;;;-2.56;55.88
61357;BME280;47227;46.752;23.576;2023-03-13T00:11:13;96596.92;;;-2.57;56.15
61357;BME280;47227;46.752;23.576;2023-03-13T00:13:42;96596.80;;;-2.58;56.77
61357;BME280;47227;46.752;23.576;2023-03-13T00:16:13;96600.67;;;-2.59;56.17
61357;BME280;47227;46.752;23.576;2023-03-13T00:18:45;96602.83;;;-2.58;59.89
61357;BME280;47227;46.752;23.576;2023-03-13T00:21:14;96608.64;;;-2.58;58.45
61357;BME280;47227;46.752;23.576;2023-03-13T00:23:42;96618.32;;;-2.59;58.39
61357;BME280;47227;46.752;23.576;2023-03-13T00:26:12;96629.45;;;-2.59;61.26
61357;BME280;47227;46.752;23.576;2023-03-13T00:28:42;96638.96;;;-2.60;59.54
61357;BME280;47227;46.752;23.576;2023-03-13T00:31:15;96649.13;;;-2.63;61.75
61357;BME280;47227;46.752;23.576;2023-03-13T00:33:45;96641.16;;;-2.65;60.04
61357;BME280;47227;46.752;23.576;2023-03-13T00:36:18;96628.18;;;-2.69;58.71
61357;BME280;47227;46.752;23.576;2023-03-13T00:38:50;96627.59;;;-2.71;58.44
61357;BME280;47227;46.752;23.576;2023-03-13T00:41:22;96631.28;;;-2.74;58.40
61357;BME280;47227;46.752;23.576;2023-03-13T00:43:50;96625.86;;;-2.76;57.76
61357;BME280;47227;46.752;23.576;2023-03-13T00:46:21;96617.08;;;-2.77;57.70
61357;BME280;47227;46.752;23.576;2023-03-13T00:48:50;96615.21;;;-2.77;57.56
61357;BME280;47227;46.752;23.576;2023-03-13T00:51:19;96611.90;;;-2.78;57.29
61357;BME280;47227;46.752;23.576;2023-03-13T00:53:48;96615.91;;;-2.79;57.15
61357;BME280;47227;46.752;23.576;2023-03-13T00:56:18;96616.16;;;-2.82;57.29
61357;BME280;47227;46.752;23.576;2023-03-13T00:58:48;96611.98;;;-2.83;57.25
61357;BME280;47227;46.752;23.576;2023-03-13T01:01:21;96611.22;;;-2.82;57.88
61357;BME280;47227;46.752;23.576;2023-03-13T01:03:54;96607.38;;;-2.80;57.81
61357;BME280;47227;46.752;23.576;2023-03-13T01:06:26;96600.13;;;-2.79;57.19
61357;BME280;47227;46.752;23.576;2023-03-13T01:08:57;96601.19;;;-2.79;57.61
61357;BME280;47227;46.752;23.576;2023-03-13T01:11:29;96605.30;;;-2.79;57.44
61357;BME280;47227;46.752;23.576;2023-03-13T01:14:01;96610.44;;;-2.77;59.47
61357;BME280;47227;46.752;23.576;2023-03-13T01:16:32;96608.45;;;-2.76;58.05
61357;BME280;47227;46.752;23.576;2023-03-13T01:19:04;96603.38;;;-2.77;57.81
61357;BME280;47227;46.752;23.576;2023-03-13T01:21:32;96593.52;;;-2.80;57.99
61357;BME280;47227;46.752;23.576;2023-03-13T01:24:01;96595.38;;;-2.83;58.78
61357;BME280;47227;46.752;23.576;2023-03-13T01:26:30;96602.00;;;-2.86;58.11
61357;BME280;47227;46.752;23.576;2023-03-13T01:28:59;96606.58;;;-2.89;58.04
61357;BME280;47227;46.752;23.576;2023-03-13T01:31:30;96602.64;;;-2.92;61.68
61357;BME280;47227;46.752;23.576;2023-03-13T01:34:02;96602.25;;;-2.95;60.42
61357;BME280;47227;46.752;23.576;2023-03-13T01:36:31;96596.66;;;-2.99;61.25
61357;BME280;47227;46.752;23.576;2023-03-13T01:39:00;96598.91;;;-3.01;59.95
61357;BME280;47227;46.752;23.576;2023-03-13T01:41:29;96608.48;;;-3.01;62.20
61357;BME280;47227;46.752;23.576;2023-03-13T01:43:58;96617.95;;;-2.99;64.24
61357;BME280;47227;46.752;23.576;2023-03-13T01:46:33;96623.20;;;-3.02;65.13
61357;BME280;47227;46.752;23.576;2023-03-13T01:49:10;96629.94;;;-3.07;64.84
61357;BME280;47227;46.752;23.576;2023-03-13T01:51:56;96625.11;;;-3.10;63.50
61357;BME280;47227;46.752;23.576;2023-03-13T01:54:39;96631.10;;;-3.12;62.87
61357;BME280;47227;46.752;23.576;2023-03-13T01:57:30;96624.39;;;-3.13;61.96
61357;BME280;47227;46.752;23.576;2023-03-13T02:00:05;96618.87;;;-3.14;61.11
61357;BME280;47227;46.752;23.576;2023-03-13T02:02:46;96622.15;;;-3.14;61.12
61357;BME280;47227;46.752;23.576;2023-03-13T02:05:16;96627.04;;;-3.14;60.73
61357;BME280;47227;46.752;23.576;2023-03-13T02:07:50;96628.45;;;-3.11;61.53
61357;BME280;47227;46.752;23.576;2023-03-13T02:10:21;96633.11;;;-3.08;61.14
61357;BME280;47227;46.752;23.576;2023-03-13T02:12:51;96640.67;;;-3.05;60.95
61357;BME280;47227;46.752;23.576;2023-03-13T02:15:23;96644.35;;;-3.00;60.66
61357;BME280;47227;46.752;23.576;2023-03-13T02:17:52;96644.34;;;-2.95;60.80
61357;BME280;47227;46.752;23.576;2023-03-13T02:20:21;96640.16;;;-2.91;60.47
61357;BME280;47227;46.752;23.576;2023-03-13T02:23:02;96645.02;;;-2.86;60.12
61357;BME280;47227;46.752;23.576;2023-03-13T02:25:38;96642.55;;;-2.83;60.30
61357;BME280;47227;46.752;23.576;2023-03-13T02:28:12;96646.33;;;-2.79;59.88
61357;BME280;47227;46.752;23.576;2023-03-13T02:30:43;96648.55;;;-2.77;60.68
61357;BME280;47227;46.752;23.576;2023-03-13T02:33:13;96644.67;;;-2.76;59.89
61357;BME280;47227;46.752;23.576;2023-03-13T02:35:43;96645.80;;;-2.75;59.84
61357;BME280;47227;46.752;23.576;2023-03-13T02:38:16;96641.92;;;-2.74;59.61
61357;BME280;47227;46.752;23.576;2023-03-13T02:40:47;96635.35;;;-2.73;59.35
61357;BME280;47227;46.752;23.576;2023-03-13T02:43:20;96633.14;;;-2.72;59.47
61357;BME280;47227;46.752;23.576;2023-03-13T02:46:11;96630.88;;;-2.70;58.97
61357;BME280;47227;46.752;23.576;2023-03-13T02:48:45;96625.69;;;-2.68;59.39
61357;BME280;47227;46.752;23.576;2023-03-13T02:51:27;96622.20;;;-2.65;59.11
61357;BME280;47227;46.752;23.576;2023-03-13T02:54:00;96620.05;;;-2.63;59.26
61357;BME280;47227;46.752;23.576;2023-03-13T02:56:30;96625.32;;;-2.59;60.48
61357;BME280;47227;46.752;23.576;2023-03-13T02:59:00;96624.73;;;-2.55;60.94
61357;BME280;47227;46.752;23.576;2023-03-13T03:01:28;96629.08;;;-2.49;61.36
61357;BME280;47227;46.752;23.576;2023-03-13T03:03:56;96637.08;;;-2.47;60.98
61357;BME280;47227;46.752;23.576;2023-03-13T03:06:24;96633.48;;;-2.47;60.43
61357;BME280;47227;46.752;23.576;2023-03-13T03:08:53;96633.63;;;-2.46;61.36
61357;BME280;47227;46.752;23.576;2023-03-13T03:11:21;96634.47;;;-2.46;61.33
61357;BME280;47227;46.752;23.576;2023-03-13T03:13:54;96630.69;;;-2.48;61.64
61357;BME280;47227;46.752;23.576;2023-03-13T03:16:22;96635.02;;;-2.48;61.35
61357;BME280;47227;46.752;23.576;2023-03-13T03:18:50;96633.27;;;-2.50;61.31
61357;BME280;47227;46.752;23.576;2023-03-13T03:21:19;96635.02;;;-2.50;60.60
61357;BME280;47227;46.752;23.576;2023-03-13T03:23:48;96637.16;;;-2.49;61.65
61357;BME280;47227;46.752;23.576;2023-03-13T03:26:17;96636.98;;;-2.47;62.44
61357;BME280;47227;46.752;23.576;2023-03-13T03:28:45;96641.23;;;-2.45;62.64
61357;BME280;47227;46.752;23.576;2023-03-13T03:31:14;96646.44;;;-2.41;63.37
61357;BME280;47227;46.752;23.576;2023-03-13T03:33:44;96649.55;;;-2.40;63.17
61357;BME280;47227;46.752;23.576;2023-03-13T03:36:15;96652.73;;;-2.39;62.54
61357;BME280;47227;46.752;23.576;2023-03-13T03:38:44;96656.10;;;-2.40;62.25
61357;BME280;47227;46.752;23.576;2023-03-13T03:41:14;96655.52;;;-2.44;64.00
61357;BME280;47227;46.752;23.576;2023-03-13T03:43:44;96663.23;;;-2.46;63.25
61357;BME280;47227;46.752;23.576;2023-03-13T03:46:14;96659.36;;;-2.47;62.13
61357;BME280;47227;46.752;23.576;2023-03-13T03:48:43;96656.09;;;-2.48;61.79
61357;BME280;47227;46.752;23.576;2023-03-13T03:51:11;96651.55;;;-2.51;61.34
61357;BME280;47227;46.752;23.576;2023-03-13T03:53:41;96650.86;;;-2.52;61.49
61357;BME280;47227;46.752;23.576;2023-03-13T03:56:09;96657.50;;;-2.54;61.42
61357;BME280;47227;46.752;23.576;2023-03-13T03:58:41;96666.42;;;-2.56;61.99
61357;BME280;47227;46.752;23.576;2023-03-13T04:01:23;96670.30;;;-2.58;61.53
61357;BME280;47227;46.752;23.576;2023-03-13T04:03:51;96669.33;;;-2.61;61.68
61357;BME280;47227;46.752;23.576;2023-03-13T04:06:20;96670.95;;;-2.62;61.68
61357;BME280;47227;46.752;23.576;2023-03-13T04:08:48;96670.19;;;-2.63;61.63
61357;BME280;47227;46.752;23.576;2023-03-13T04:11:18;96673.79;;;-2.63;61.34
61357;BME280;47227;46.752;23.576;2023-03-13T04:13:50;96680.45;;;-2.63;63.09
61357;BME280;47227;46.752;23.576;2023-03-13T04:16:18;96679.95;;;-2.63;62.52
61357;BME280;47227;46.752;23.576;2023-03-13T04:18:47;96674.77;;;-2.61;61.73
61357;BME280;47227;46.752;23.576;2023-03-13T04:21:16;96676.77;;;-2.58;61.64
61357;BME280;47227;46.752;23.576;2023-03-13T04:23:49;96679.52;;;-2.55;61.32
61357;BME280;47227;46.752;23.576;2023-03-13T04:26:17;96670.16;;;-2.52;61.50
61357;BME280;47227;46.752;23.576;2023-03-13T04:28:45;96658.38;;;-2.49;61.23
61357;BME280;47227;46.752;23.576;2023-03-13T04:31:18;96661.55;;;-2.47;61.61
61357;BME280;47227;46.752;23.576;2023-03-13T04:34:06;96671.83;;;-2.45;62.66
61357;BME280;47227;46.752;23.576;2023-03-13T04:36:49;96668.17;;;-2.42;61.79
61357;BME280;47227;46.752;23.576;2023-03-13T04:39:37;96654.11;;;-2.39;61.56
61357;BME280;47227;46.752;23.576;2023-03-13T04:42:17;96649.50;;;-2.34;61.21
61357;BME280;47227;46.752;23.576;2023-03-13T04:44:56;96655.14;;;-2.29;61.24
61357;BME280;47227;46.752;23.576;2023-03-13T04:47:36;96657.36;;;-2.24;60.97
61357;BME280;47227;46.752;23.576;2023-03-13T04:50:17;96663.22;;;-2.19;62.01
61357;BME280;47227;46.752;23.576;2023-03-13T04:52:54;96678.01;;;-2.16;62.36
61357;BME280;47227;46.752;23.576;2023-03-13T04:55:32;96673.19;;;-2.13;61.79
61357;BME280;47227;46.752;23.576;2023-03-13T04:58:10;96675.83;;;-2.08;61.34
61357;BME280;47227;46.752;23.576;2023-03-13T05:00:57;96679.66;;;-2.07;61.80
61357;BME280;47227;46.752;23.576;2023-03-13T05:03:45;96682.94;;;-2.08;61.71
61357;BME280;47227;46.752;23.576;2023-03-13T05:06:33;96680.89;;;-2.08;62.25
61357;BME280;47227;46.752;23.576;2023-03-13T05:09:18;96692.61;;;-2.05;62.40
61357;BME280;47227;46.752;23.576;2023-03-13T05:11:58;96698.98;;;-2.04;62.97
61357;BME280;47227;46.752;23.576;2023-03-13T05:14:45;96697.94;;;-1.98;62.35
61357;BME280;47227;46.752;23.576;2023-03-13T05:17:30;96705.94;;;-1.93;62.56
61357;BME280;47227;46.752;23.576;2023-03-13T05:20:12;96717.90;;;-1.88;61.85
61357;BME280;47227;46.752;23.576;2023-03-13T05:22:57;96723.98;;;-1.82;61.73
61357;BME280;47227;46.752;23.576;2023-03-13T05:25:39;96723.73;;;-1.76;61.71
61357;BME280;47227;46.752;23.576;2023-03-13T05:28:27;96714.65;;;-1.69;61.58
61357;BME280;47227;46.752;23.576;2023-03-13T05:31:10;96713.69;;;-1.64;62.04
61357;BME280;47227;46.752;23.576;2023-03-13T05:33:53;96706.49;;;-1.60;61.78
61357;BME280;47227;46.752;23.576;2023-03-13T05:36:32;96698.80;;;-1.59;62.69
61357;BME280;47227;46.752;23.576;2023-03-13T05:39:16;96705.30;;;-1.57;62.21
61357;BME280;47227;46.752;23.576;2023-03-13T05:41:57;96704.33;;;-1.56;62.16
61357;BME280;47227;46.752;23.576;2023-03-13T05:44:36;96698.52;;;-1.55;62.06
61357;BME280;47227;46.752;23.576;2023-03-13T05:47:21;96707.71;;;-1.52;61.86
61357;BME280;47227;46.752;23.576;2023-03-13T05:50:01;96711.06;;;-1.48;62.52
61357;BME280;47227;46.752;23.576;2023-03-13T05:52:35;96723.29;;;-1.44;64.28
61357;BME280;47227;46.752;23.576;2023-03-13T05:55:18;96726.12;;;-1.41;65.93
61357;BME280;47227;46.752;23.576;2023-03-13T05:58:00;96730.42;;;-1.40;66.98
61357;BME280;47227;46.752;23.576;2023-03-13T06:00:48;96731.20;;;-1.39;66.93
61357;BME280;47227;46.752;23.576;2023-03-13T06:03:33;96726.60;;;-1.39;66.56
61357;BME280;47227;46.752;23.576;2023-03-13T06:06:02;96724.93;;;-1.35;66.34
61357;BME280;47227;46.752;23.576;2023-03-13T06:08:35;96728.04;;;-1.28;66.52
61357;BME280;47227;46.752;23.576;2023-03-13T06:11:03;96730.11;;;-1.22;65.53
61357;BME280;47227;46.752;23.576;2023-03-13T06:13:32;96729.98;;;-1.16;64.91
61357;BME280;47227;46.752;23.576;2023-03-13T06:16:05;96731.80;;;-1.11;64.50
61357;BME280;47227;46.752;23.576;2023-03-13T06:18:38;96736.79;;;-1.07;64.10
61357;BME280;47227;46.752;23.576;2023-03-13T06:21:06;96735.95;;;-1.06;64.95
61357;BME280;47227;46.752;23.576;2023-03-13T06:23:35;96734.08;;;-1.06;64.16
61357;BME280;47227;46.752;23.576;2023-03-13T06:26:03;96734.00;;;-1.05;63.84
61357;BME280;47227;46.752;23.576;2023-03-13T06:28:31;96741.93;;;-1.02;63.74
61357;BME280;47227;46.752;23.576;2023-03-13T06:31:01;96730.40;;;-0.99;63.71
61357;BME280;47227;46.752;23.576;2023-03-13T06:33:29;96732.39;;;-0.95;63.88
61357;BME280;47227;46.752;23.576;2023-03-13T06:35:59;96727.30;;;-0.87;63.41
61357;BME280;47227;46.752;23.576;2023-03-13T06:38:28;96726.02;;;-0.77;63.37
61357;BME280;47227;46.752;23.576;2023-03-13T06:40:57;96729.20;;;-0.68;62.98
61357;BME280;47227;46.752;23.576;2023-03-13T06:43:25;96727.27;;;-0.58;62.52
61357;BME280;47227;46.752;23.576;2023-03-13T06:45:53;96723.97;;;-0.45;62.46
61357;BME280;47227;46.752;23.576;2023-03-13T06:48:21;96724.23;;;-0.30;62.24
61357;BME280;47227;46.752;23.576;2023-03-13T06:50:50;96731.45;;;-0.18;61.67
61357;BME280;47227;46.752;23.576;2023-03-13T06:53:19;96732.80;;;-0.08;61.37
61357;BME280;47227;46.752;23.576;2023-03-13T06:55:47;96737.20;;;-0.12;61.11
61357;BME280;47227;46.752;23.576;2023-03-13T06:58:17;96742.91;;;-0.06;61.64
61357;BME280;47227;46.752;23.576;2023-03-13T07:01:11;96738.92;;;0.01;61.49
61357;BME280;47227;46.752;23.576;2023-03-13T07:03:43;96734.91;;;-0.07;61.31
61357;BME280;47227;46.752;23.576;2023-03-13T07:06:12;96733.70;;;-0.01;61.40
61357;BME280;47227;46.752;23.576;2023-03-13T07:08:40;96725.67;;;0.10;61.53
61357;BME280;47227;46.752;23.576;2023-03-13T07:11:11;96723.60;;;0.24;60.72
61357;BME280;47227;46.752;23.576;2023-03-13T07:13:40;96716.99;;;0.48;60.92
61357;BME280;47227;46.752;23.576;2023-03-13T07:16:10;96710.19;;;0.74;60.33
61357;BME280;47227;46.752;23.576;2023-03-13T07:18:39;96716.02;;;0.96;59.71
61357;BME280;47227;46.752;23.576;2023-03-13T07:21:09;96716.75;;;1.15;59.91
61357;BME280;47227;46.752;23.576;2023-03-13T07:23:38;96718.27;;;1.33;58.87
61357;BME280;47227;46.752;23.576;2023-03-13T07:26:11;96724.52;;;1.36;57.47
61357;BME280;47227;46.752;23.576;2023-03-13T07:28:41;96727.81;;;1.41;57.33
61357;BME280;47227;46.752;23.576;2023-03-13T07:31:18;96729.61;;;1.42;57.01
61357;BME280;47227;46.752;23.576;2023-03-13T07:33:47;96724.94;;;1.58;57.44
61357;BME280;47227;46.752;23.576;2023-03-13T07:36:19;96727.23;;;1.61;57.00
61357;BME280;47227;46.752;23.576;2023-03-13T07:38:48;96733.48;;;1.58;57.02
61357;BME280;47227;46.752;23.576;2023-03-13T07:41:27;96742.44;;;1.55;57.05
61357;BME280;47227;46.752;23.576;2023-03-13T07:43:57;96741.98;;;1.72;56.28
61357;BME280;47227;46.752;23.576;2023-03-13T07:46:36;96737.19;;;1.84;56.19
61357;BME280;47227;46.752;23.576;2023-03-13T07:49:16;96734.05;;;2.01;55.35
61357;BME280;47227;46.752;23.576;2023-03-13T07:51:46;96743.89;;;1.99;54.78
61357;BME280;47227;46.752;23.576;2023-03-13T07:54:21;96738.33;;;1.99;54.71
61357;BME280;47227;46.752;23.576;2023-03-13T07:56:57;96733.98;;;2.12;54.38
61357;BME280;47227;46.752;23.576;2023-03-13T07:59:37;96737.85;;;2.39;54.76
61357;BME280;47227;46.752;23.576;2023-03-13T08:02:13;96738.27;;;2.56;53.56
61357;BME280;47227;46.752;23.576;2023-03-13T08:04:57;96744.08;;;2.56;52.81
61357;BME280;47227;46.752;23.576;2023-03-13T08:07:35;96736.30;;;2.65;52.79
61357;BME280;47227;46.752;23.576;2023-03-13T08:10:12;96731.01;;;2.83;53.13
61357;BME280;47227;46.752;23.576;2023-03-13T08:12:45;96728.81;;;3.00;53.03
61357;BME280;47227;46.752;23.576;2023-03-13T08:15:16;96729.36;;;3.08;51.79
61357;BME280;47227;46.752;23.576;2023-03-13T08:17:57;96731.04;;;3.14;51.81
61357;BME280;47227;46.752;23.576;2023-03-13T08:20:42;96728.23;;;3.26;52.23
61357;BME280;47227;46.752;23.576;2023-03-13T08:23:22;96717.97;;;3.33;51.25
61357;BME280;47227;46.752;23.576;2023-03-13T08:26:10;96721.43;;;3.46;51.27
61357;BME280;47227;46.752;23.576;2023-03-13T08:28:50;96731.54;;;3.49;50.57
61357;BME280;47227;46.752;23.576;2023-03-13T08:31:37;96735.91;;;3.52;50.02
61357;BME280;47227;46.752;23.576;2023-03-13T08:34:14;96727.81;;;3.60;50.43
61357;BME280;47227;46.752;23.576;2023-03-13T08:36:57;96727.42;;;3.77;50.56
61357;BME280;47227;46.752;23.576;2023-03-13T08:39:37;96726.18;;;3.78;49.17
61357;BME280;47227;46.752;23.576;2023-03-13T08:42:25;96721.95;;;3.88;50.07
61357;BME280;47227;46.752;23.576;2023-03-13T08:45:44;96718.11;;;4.04;50.01
61357;BME280;47227;46.752;23.576;2023-03-13T08:48:59;96717.14;;;4.26;50.05
61357;BME280;47227;46.752;23.576;2023-03-13T08:51:35;96717.05;;;4.42;49.12
61357;BME280;47227;46.752;23.576;2023-03-13T08:54:51;96726.23;;;4.61;48.65
61357;BME280;47227;46.752;23.576;2023-03-13T08:57:35;96724.47;;;4.65;46.89
61357;BME280;47227;46.752;23.576;2023-03-13T09:00:04;96728.98;;;4.83;47.36
61357;BME280;47227;46.752;23.576;2023-03-13T09:02:41;96728.80;;;5.01;47.47
61357;BME280;47227;46.752;23.576;2023-03-13T09:06:03;96729.11;;;5.31;46.73
61357;BME280;47227;46.752;23.576;2023-03-13T09:09:10;96729.45;;;5.63;46.91
61357;BME280;47227;46.752;23.576;2023-03-13T09:11:51;96728.54;;;5.91;46.59
61357;BME280;47227;46.752;23.576;2023-03-13T09:25:37;96730.63;;;7.22;43.87
61357;BME280;47227;46.752;23.576;2023-03-13T09:28:37;96729.69;;;7.39;41.35
61357;BME280;47227;46.752;23.576;2023-03-13T09:32:59;96725.27;;;7.47;42.65
61357;BME280;47227;46.752;23.576;2023-03-13T09:36:12;96724.86;;;7.52;41.94
61357;BME280;47227;46.752;23.576;2023-03-13T09:42:15;96719.52;;;7.96;40.92
61357;BME280;47227;46.752;23.576;2023-03-13T09:45:03;96715.56;;;8.16;40.50
61357;BME280;47227;46.752;23.576;2023-03-13T09:48:28;96707.85;;;8.44;40.45
61357;BME280;47227;46.752;23.576;2023-03-13T09:51:34;96703.15;;;8.57;38.38
61357;BME280;47227;46.752;23.576;2023-03-13T09:54:23;96698.25;;;8.51;38.07
61357;BME280;47227;46.752;23.576;2023-03-13T09:57:10;96696.93;;;8.59;38.34
61357;BME280;47227;46.752;23.576;2023-03-13T10:00:02;96689.63;;;8.88;38.27
61357;BME280;47227;46.752;23.576;2023-03-13T10:03:02;96691.51;;;8.95;37.45
61357;BME280;47227;46.752;23.576;2023-03-13T10:06:05;96689.95;;;9.16;37.37
61357;BME280;47227;46.752;23.576;2023-03-13T10:09:17;96687.89;;;9.15;35.62
61357;BME280;47227;46.752;23.576;2023-03-13T10:13:14;96678.93;;;9.34;36.30
61357;BME280;47227;46.752;23.576;2023-03-13T10:15:54;96672.49;;;9.44;35.47
61357;BME280;47227;46.752;23.576;2023-03-13T10:18:28;96669.21;;;9.54;34.98
61357;BME280;47227;46.752;23.576;2023-03-13T10:21:19;96661.77;;;9.75;35.05
61357;BME280;47227;46.752;23.576;2023-03-13T10:39:24;96634.72;;;10.31;33.38
61357;BME280;47227;46.752;23.576;2023-03-13T10:41:58;96631.35;;;10.64;32.70
61357;BME280;47227;46.752;23.576;2023-03-13T10:44:36;96628.55;;;10.83;30.26
61357;BME280;47227;46.752;23.576;2023-03-13T10:47:13;96622.86;;;10.75;29.56
61357;BME280;47227;46.752;23.576;2023-03-13T10:49:49;96620.21;;;10.63;29.94
61357;BME280;47227;46.752;23.576;2023-03-13T10:52:30;96618.45;;;10.74;30.18
61357;BME280;47227;46.752;23.576;2023-03-13T10:55:04;96621.33;;;11.15;31.20
61357;BME280;47227;46.752;23.576;2023-03-13T10:57:37;96615.08;;;11.43;28.90
61357;BME280;47227;46.752;23.576;2023-03-13T11:00:33;96613.06;;;10.98;28.60
61357;BME280;47227;46.752;23.576;2023-03-13T11:03:22;96605.41;;;11.22;28.69
61357;BME280;47227;46.752;23.576;2023-03-13T11:05:59;96600.61;;;11.37;28.46
61357;BME280;47227;46.752;23.576;2023-03-13T11:08:35;96596.29;;;11.57;29.20
61357;BME280;47227;46.752;23.576;2023-03-13T11:11:09;96590.62;;;12.05;30.48
61357;BME280;47227;46.752;23.576;2023-03-13T11:13:44;96586.66;;;12.51;29.15
61357;BME280;47227;46.752;23.576;2023-03-13T11:19:16;96580.92;;;12.82;28.29
61357;BME280;47227;46.752;23.576;2023-03-13T11:27:41;96567.16;;;13.48;27.42
61357;BME280;47227;46.752;23.576;2023-03-13T11:30:40;96562.34;;;13.28;27.58
61357;BME280;47227;46.752;23.576;2023-03-13T11:36:27;96555.67;;;14.33;27.47
61357;BME280;47227;46.752;23.576;2023-03-13T11:42:05;96558.08;;;15.01;25.76
61357;BME280;47227;46.752;23.576;2023-03-13T11:47:49;96558.23;;;15.57;24.78
61357;BME280;47227;46.752;23.576;2023-03-13T11:50:43;96552.98;;;15.78;23.93
61357;BME280;47227;46.752;23.576;2023-03-13T11:53:33;96554.30;;;16.05;23.16
61357;BME280;47227;46.752;23.576;2023-03-13T11:56:18;96550.39;;;16.32;22.79
61357;BME280;47227;46.752;23.576;2023-03-13T12:01:53;96546.14;;;16.52;21.68
61357;BME280;47227;46.752;23.576;2023-03-13T12:04:30;96541.14;;;16.51;21.67
61357;BME280;47227;46.752;23.576;2023-03-13T12:07:19;96542.77;;;17.04;21.58
61357;BME280;47227;46.752;23.576;2023-03-13T12:09:55;96542.54;;;17.21;21.20
61357;BME280;47227;46.752;23.576;2023-03-13T12:12:38;96541.21;;;17.34;21.08
61357;BME280;47227;46.752;23.576;2023-03-13T12:15:28;96542.45;;;17.32;20.57
61357;BME280;47227;46.752;23.576;2023-03-13T12:18:22;96542.87;;;17.46;19.95
61357;BME280;47227;46.752;23.576;2023-03-13T12:21:18;96541.48;;;17.51;18.97
61357;BME280;47227;46.752;23.576;2023-03-13T12:24:05;96540.68;;;16.94;18.33
61357;BME280;47227;46.752;23.576;2023-03-13T12:26:50;96542.30;;;17.27;18.90
61357;BME280;47227;46.752;23.576;2023-03-13T12:32:35;96532.20;;;18.10;18.60
61357;BME280;47227;46.752;23.576;2023-03-13T12:35:26;96532.80;;;18.32;18.37
61357;BME280;47227;46.752;23.576;2023-03-13T12:38:16;96528.54;;;18.47;18.03
61357;BME280;47227;46.752;23.576;2023-03-13T12:43:53;96523.20;;;18.83;18.05
61357;BME280;47227;46.752;23.576;2023-03-13T12:50:35;96523.14;;;19.52;17.60
61357;BME280;47227;46.752;23.576;2023-03-13T12:53:28;96525.50;;;19.45;16.70
61357;BME280;47227;46.752;23.576;2023-03-13T12:56:29;96524.92;;;19.56;16.63
61357;BME280;47227;46.752;23.576;2023-03-13T12:59:13;96524.98;;;19.84;16.69
61357;BME280;47227;46.752;23.576;2023-03-13T13:01:49;96521.20;;;19.99;16.38
61357;BME280;47227;46.752;23.576;2023-03-13T13:04:23;96516.59;;;20.22;15.98
61357;BME280;47227;46.752;23.576;2023-03-13T13:07:04;96514.10;;;20.24;15.74
61357;BME280;47227;46.752;23.576;2023-03-13T13:09:36;96509.59;;;20.14;15.66
61357;BME280;47227;46.752;23.576;2023-03-13T13:12:22;96509.23;;;20.54;16.67
61357;BME280;47227;46.752;23.576;2023-03-13T13:14:55;96508.94;;;20.88;15.76
61357;BME280;47227;46.752;23.576;2023-03-13T13:17:38;96504.10;;;20.94;15.59
61357;BME280;47227;46.752;23.576;2023-03-13T13:20:28;96499.02;;;20.68;15.32
61357;BME280;47227;46.752;23.576;2023-03-13T13:23:24;96493.36;;;20.78;15.66
61357;BME280;47227;46.752;23.576;2023-03-13T13:25:56;96491.35;;;21.09;15.62
61357;BME280;47227;46.752;23.576;2023-03-13T13:28:45;96493.45;;;21.38;16.24
61357;BME280;47227;46.752;23.576;2023-03-13T13:31:53;96491.21;;;21.76;15.73
61357;BME280;47227;46.752;23.576;2023-03-13T13:34:52;96484.14;;;21.91;15.51
61357;BME280;47227;46.752;23.576;2023-03-13T13:37:25;96476.04;;;22.33;15.84
61357;BME280;47227;46.752;23.576;2023-03-13T13:40:19;96477.66;;;22.39;15.01
61357;BME280;47227;46.752;23.576;2023-03-13T13:42:54;96480.75;;;22.11;14.68
61357;BME280;47227;46.752;23.576;2023-03-13T13:45:29;96480.56;;;22.45;15.13
61357;BME280;47227;46.752;23.576;2023-03-13T13:51:19;96469.11;;;22.71;14.48
61357;BME280;47227;46.752;23.576;2023-03-13T13:53:59;96470.94;;;22.50;14.32
61357;BME280;47227;46.752;23.576;2023-03-13T13:56:34;96468.31;;;22.58;14.70
61357;BME280;47227;46.752;23.576;2023-03-13T13:59:24;96467.02;;;22.44;14.73
61357;BME280;47227;46.752;23.576;2023-03-13T14:02:20;96467.65;;;22.55;14.64
61357;BME280;47227;46.752;23.576;2023-03-13T14:05:07;96469.23;;;22.51;14.53
61357;BME280;47227;46.752;23.576;2023-03-13T14:07:47;96462.08;;;22.86;15.03
61357;BME280;47227;46.752;23.576;2023-03-13T14:10:29;96453.02;;;22.88;14.70
61357;BME280;47227;46.752;23.576;2023-03-13T14:13:00;96451.55;;;22.86;14.52
61357;BME280;47227;46.752;23.576;2023-03-13T14:15:33;96450.27;;;22.93;14.61
61357;BME280;47227;46.752;23.576;2023-03-13T14:18:18;96448.72;;;22.86;14.19
61357;BME280;47227;46.752;23.576;2023-03-13T14:20:54;96447.48;;;22.80;14.02
61357;BME280;47227;46.752;23.576;2023-03-13T14:23:39;96444.66;;;22.53;14.20
61357;BME280;47227;46.752;23.576;2023-03-13T14:26:15;96443.02;;;22.50;14.34
61357;BME280;47227;46.752;23.576;2023-03-13T14:28:49;96436.36;;;22.64;14.51
61357;BME280;47227;46.752;23.576;2023-03-13T14:31:28;96431.30;;;22.17;14.88
61357;BME280;47227;46.752;23.576;2023-03-13T14:34:00;96426.66;;;22.37;15.31
61357;BME280;47227;46.752;23.576;2023-03-13T14:36:28;96425.16;;;22.45;15.27
61357;BME280;47227;46.752;23.576;2023-03-13T14:38:59;96418.41;;;22.19;15.20
61357;BME280;47227;46.752;23.576;2023-03-13T14:41:36;96407.91;;;22.25;15.33
61357;BME280;47227;46.752;23.576;2023-03-13T14:44:13;96400.63;;;22.19;15.37
61357;BME280;47227;46.752;23.576;2023-03-13T14:46:42;96399.20;;;22.19;15.21
61357;BME280;47227;46.752;23.576;2023-03-13T14:49:17;96395.71;;;22.00;15.24
61357;BME280;47227;46.752;23.576;2023-03-13T14:54:52;96395.72;;;21.73;15.28
61357;BME280;47227;46.752;23.576;2023-03-13T14:57:24;96392.39;;;21.53;15.11